createdAt,value
2023-07-26T00:01:29.564Z,12.90
2023-07-26T00:03:29.867Z,12.30
2023-07-26T00:05:30.166Z,13.00
2023-07-26T00:07:30.510Z,12.10
2023-07-26T00:09:31.227Z,11.50
2023-07-26T00:11:31.460Z,12.20
2023-07-26T00:13:31.774Z,12.00
2023-07-26T00:15:32.096Z,11.90
2023-07-26T00:17:32.399Z,12.40
2023-07-26T00:19:32.676Z,11.80
2023-07-26T00:21:32.946Z,12.10
2023-07-26T00:23:33.291Z,12.90
2023-07-26T00:25:33.639Z,12.40
2023-07-26T00:27:33.885Z,12.10
2023-07-26T00:29:34.184Z,12.30
2023-07-26T00:31:34.636Z,12.50
2023-07-26T00:33:34.929Z,11.40
2023-07-26T00:35:35.213Z,11.60
2023-07-26T00:37:35.524Z,12.30
2023-07-26T00:39:35.837Z,13.20
2023-07-26T00:41:36.136Z,12.90
2023-07-26T00:43:36.537Z,12.30
2023-07-26T00:45:36.844Z,12.80
2023-07-26T00:47:37.226Z,13.30
2023-07-26T00:49:37.950Z,13.50
2023-07-26T00:51:38.703Z,13.70
2023-07-26T00:53:38.961Z,13.30
2023-07-26T00:55:39.288Z,13.40
2023-07-26T00:57:39.608Z,13.40
2023-07-26T00:59:39.889Z,13.40
2023-07-26T01:01:40.197Z,12.70
2023-07-26T01:03:40.519Z,12.70
2023-07-26T01:05:40.792Z,13.40
2023-07-26T01:07:41.124Z,13.20
2023-07-26T01:09:41.425Z,13.80
2023-07-26T01:11:41.756Z,13.80
2023-07-26T01:13:42.086Z,13.00
2023-07-26T01:15:42.375Z,12.20
2023-07-26T01:17:42.694Z,12.50
2023-07-26T01:19:43.335Z,11.70
2023-07-26T01:21:43.649Z,12.40
2023-07-26T01:23:43.967Z,12.60
2023-07-26T01:25:44.228Z,12.40
2023-07-26T01:27:44.677Z,11.30
2023-07-26T01:29:44.933Z,11.40
2023-07-26T01:31:45.226Z,11.80
2023-07-26T01:33:45.691Z,11.60
2023-07-26T01:35:50.883Z,10.60
2023-07-26T01:37:51.180Z,10.60
2023-07-26T01:39:51.477Z,11.60
2023-07-26T01:41:52.188Z,11.10
2023-07-26T01:43:52.479Z,10.70
2023-07-26T01:45:52.901Z,11.00
2023-07-26T01:47:53.258Z,10.50
2023-07-26T01:49:53.674Z,10.40
2023-07-26T01:51:53.947Z,9.90
2023-07-26T01:53:54.621Z,10.20
2023-07-26T01:55:54.987Z,10.70
2023-07-26T01:57:55.284Z,10.40
2023-07-26T01:59:55.617Z,11.40
2023-07-26T02:01:57.893Z,12.00
2023-07-26T02:03:58.596Z,11.50
2023-07-26T02:05:59.195Z,11.40
2023-07-26T02:07:59.506Z,11.70
2023-07-26T02:10:00.408Z,12.40
2023-07-26T02:12:00.705Z,12.50
2023-07-26T02:14:00.981Z,12.10
2023-07-26T02:16:01.329Z,12.60
2023-07-26T02:18:01.668Z,12.00
2023-07-26T02:20:01.968Z,12.00
2023-07-26T02:22:02.252Z,12.20
2023-07-26T02:24:02.530Z,11.90
2023-07-26T02:26:02.798Z,12.20
2023-07-26T02:28:03.145Z,12.60
2023-07-26T02:30:03.456Z,11.70
2023-07-26T02:32:03.879Z,12.10
2023-07-26T02:34:04.155Z,11.60
2023-07-26T02:36:04.535Z,11.60
2023-07-26T02:38:05.317Z,12.40
2023-07-26T02:40:05.622Z,12.30
2023-07-26T02:42:05.945Z,12.50
2023-07-26T02:44:06.233Z,13.40
2023-07-26T02:46:06.553Z,13.70
2023-07-26T02:48:06.883Z,13.30
2023-07-26T02:50:07.151Z,12.80
2023-07-26T02:52:07.483Z,13.10
2023-07-26T02:54:07.743Z,12.70
2023-07-26T02:56:08.031Z,12.50
2023-07-26T02:58:08.368Z,12.30
2023-07-26T03:00:08.638Z,12.00
2023-07-26T03:02:08.955Z,11.80
2023-07-26T03:04:09.558Z,10.90
2023-07-26T03:06:09.842Z,11.20
2023-07-26T03:08:10.188Z,12.00
2023-07-26T03:10:10.491Z,11.60
2023-07-26T03:12:10.790Z,11.00
2023-07-26T03:14:11.077Z,12.20
2023-07-26T03:16:11.519Z,12.90
2023-07-26T03:18:11.823Z,12.40
2023-07-26T03:20:12.108Z,12.80
2023-07-26T03:22:12.429Z,12.50
2023-07-26T03:24:12.777Z,13.30
2023-07-26T03:26:13.057Z,12.90
2023-07-26T03:28:13.402Z,12.70
2023-07-26T03:30:13.729Z,14.00
2023-07-26T03:32:13.969Z,13.80
2023-07-26T03:34:14.340Z,14.30
2023-07-26T03:36:14.622Z,13.90
2023-07-26T03:38:14.900Z,14.90
2023-07-26T03:40:15.230Z,14.60
2023-07-26T03:42:15.502Z,15.10
2023-07-26T03:44:15.845Z,14.30
2023-07-26T03:46:16.152Z,14.10
2023-07-26T03:48:16.472Z,14.40
2023-07-26T03:50:16.734Z,15.10
2023-07-26T03:52:17.160Z,14.90
2023-07-26T03:54:17.450Z,14.10
2023-07-26T03:56:17.722Z,14.90
2023-07-26T03:58:18.008Z,14.70
2023-07-26T04:00:18.447Z,14.50
2023-07-26T04:02:18.784Z,14.70
2023-07-26T04:04:23.904Z,14.70
2023-07-26T04:06:24.319Z,14.40
2023-07-26T04:08:24.597Z,14.20
2023-07-26T04:10:24.895Z,13.50
2023-07-26T04:12:25.177Z,13.80
2023-07-26T04:14:25.468Z,14.60
2023-07-26T04:16:25.831Z,14.10
2023-07-26T04:18:26.121Z,14.20
2023-07-26T04:20:26.428Z,14.70
2023-07-26T04:22:26.758Z,14.10
2023-07-26T04:24:27.102Z,14.90
2023-07-26T04:26:27.476Z,15.30
2023-07-26T04:28:27.809Z,14.80
2023-07-26T04:30:28.160Z,14.20
2023-07-26T04:32:28.524Z,14.20
2023-07-26T04:34:28.887Z,13.60
2023-07-26T04:36:29.180Z,13.40
2023-07-26T04:38:29.523Z,13.00
2023-07-26T04:40:29.799Z,13.40
2023-07-26T04:42:30.110Z,12.80
2023-07-26T04:44:30.536Z,12.00
2023-07-26T04:46:31.279Z,11.70
2023-07-26T04:48:32.095Z,11.30
2023-07-26T04:50:32.723Z,11.10
2023-07-26T04:52:33.045Z,11.50
2023-07-26T04:54:33.393Z,12.10
2023-07-26T04:56:34.117Z,11.20
2023-07-26T04:58:34.625Z,10.90
2023-07-26T05:00:34.930Z,10.90
2023-07-26T05:02:35.254Z,10.90
2023-07-26T05:04:35.596Z,10.10
2023-07-26T05:06:36.747Z,10.30
2023-07-26T05:08:37.025Z,10.50
2023-07-26T05:10:37.305Z,10.40
2023-07-26T05:12:37.625Z,9.90
2023-07-26T05:14:37.873Z,9.20
2023-07-26T05:16:38.248Z,8.90
2023-07-26T05:18:38.501Z,9.10
2023-07-26T05:20:38.846Z,9.60
2023-07-26T05:22:39.099Z,9.10
2023-07-26T05:24:39.462Z,8.70
2023-07-26T05:26:39.770Z,8.50
2023-07-26T05:28:40.142Z,8.60
2023-07-26T05:30:40.413Z,8.40
2023-07-26T05:32:40.761Z,8.00
2023-07-26T05:34:41.127Z,8.40
2023-07-26T05:36:41.447Z,8.60
2023-07-26T05:38:41.685Z,7.80
2023-07-26T05:40:42.003Z,8.00
2023-07-26T05:42:42.296Z,7.60
2023-07-26T05:44:42.572Z,7.10
2023-07-26T05:46:42.894Z,7.40
2023-07-26T05:48:43.205Z,6.30
2023-07-26T05:50:43.474Z,9.20
2023-07-26T05:52:45.204Z,11.50
2023-07-26T05:54:45.623Z,12.60
2023-07-26T05:56:45.976Z,13.20
2023-07-26T05:58:47.367Z,12.50
2023-07-26T06:00:48.045Z,12.90
2023-07-26T06:02:48.455Z,12.80
2023-07-26T06:04:48.726Z,12.60
2023-07-26T06:06:48.998Z,12.90
2023-07-26T06:08:49.339Z,12.10
2023-07-26T06:10:49.608Z,11.90
2023-07-26T06:12:49.918Z,12.80
2023-07-26T06:14:50.191Z,13.40
2023-07-26T06:16:50.573Z,13.60
2023-07-26T06:18:50.883Z,12.50
2023-07-26T06:20:51.266Z,11.40
2023-07-26T06:22:51.586Z,12.80
2023-07-26T06:24:51.890Z,16.80
2023-07-26T06:26:52.136Z,16.40
2023-07-26T06:28:52.533Z,16.10
2023-07-26T06:30:52.815Z,17.00
2023-07-26T06:32:53.138Z,15.00
2023-07-26T06:34:53.579Z,16.40
2023-07-26T06:36:53.826Z,16.10
2023-07-26T06:38:54.096Z,16.40
2023-07-26T06:40:54.407Z,17.10
2023-07-26T06:42:54.724Z,18.30
2023-07-26T06:44:55.063Z,18.10
2023-07-26T06:46:55.377Z,19.60
2023-07-26T06:48:55.768Z,20.20
2023-07-26T06:50:56.122Z,22.40
2023-07-26T06:52:56.404Z,21.70
2023-07-26T06:54:56.702Z,20.80
2023-07-26T06:56:56.973Z,21.40
2023-07-26T06:58:57.400Z,22.70
2023-07-26T07:00:57.668Z,13.50
2023-07-26T07:02:58.056Z,16.10
2023-07-26T07:04:58.480Z,15.80
2023-07-26T07:06:58.885Z,13.20
2023-07-26T07:08:59.488Z,16.50
2023-07-26T07:10:59.944Z,14.10
2023-07-26T07:13:00.208Z,10.60
2023-07-26T07:15:00.494Z,12.50
2023-07-26T07:17:00.788Z,13.70
2023-07-26T07:19:01.111Z,13.10
2023-07-26T07:21:01.470Z,17.60
2023-07-26T07:23:01.810Z,21.60
2023-07-26T07:25:02.141Z,23.00
2023-07-26T07:27:02.390Z,25.00
2023-07-26T07:29:02.698Z,22.50
2023-07-26T07:31:03.013Z,20.00
2023-07-26T07:33:03.429Z,15.90
2023-07-26T07:35:03.741Z,16.80
2023-07-26T07:37:04.088Z,15.50
2023-07-26T07:39:04.323Z,15.80
2023-07-26T07:41:04.654Z,15.60
2023-07-26T07:43:05.018Z,12.70
2023-07-26T07:45:05.281Z,12.00
2023-07-26T07:47:07.149Z,12.20
2023-07-26T07:49:08.993Z,11.70
2023-07-26T07:51:09.310Z,9.60
2023-07-26T07:53:09.622Z,10.70
2023-07-26T07:55:09.884Z,10.80
2023-07-26T07:57:10.222Z,11.20
2023-07-26T07:59:10.551Z,10.60
2023-07-26T08:01:10.897Z,12.40
2023-07-26T08:03:11.303Z,11.70
2023-07-26T08:05:11.906Z,12.80
2023-07-26T08:07:12.175Z,12.80
2023-07-26T08:09:12.487Z,11.70
2023-07-26T08:11:12.801Z,10.50
2023-07-26T08:13:13.110Z,9.70
2023-07-26T08:15:13.385Z,10.10
2023-07-26T08:17:13.715Z,10.80
2023-07-26T08:19:14.013Z,10.80
2023-07-26T08:21:14.357Z,10.50
2023-07-26T08:23:14.635Z,11.30
2023-07-26T08:25:15.273Z,7.10
2023-07-26T08:27:15.576Z,7.80
2023-07-26T08:29:15.915Z,7.70
2023-07-26T08:31:16.259Z,7.10
2023-07-26T08:33:16.530Z,7.70
2023-07-26T08:35:16.995Z,7.10
2023-07-26T08:37:17.356Z,5.00
2023-07-26T08:39:33.858Z,4.30
2023-07-26T08:41:22.829Z,4.10
2023-07-26T08:43:23.115Z,4.00
2023-07-26T08:45:24.255Z,4.30
2023-07-26T08:47:24.587Z,3.90
2023-07-26T08:49:24.931Z,4.40
2023-07-26T08:51:25.301Z,4.00
2023-07-26T08:53:25.604Z,4.30
2023-07-26T08:55:25.906Z,4.00
2023-07-26T08:57:26.231Z,4.00
2023-07-26T08:59:26.493Z,4.00
2023-07-26T09:01:26.837Z,4.60
2023-07-26T09:03:27.173Z,4.40
2023-07-26T09:05:27.494Z,4.30
2023-07-26T09:07:27.833Z,4.30
2023-07-26T09:09:28.110Z,4.80
2023-07-26T09:11:28.435Z,4.80
2023-07-26T09:13:28.730Z,5.40
2023-07-26T09:15:29.009Z,5.00
2023-07-26T09:17:29.852Z,5.30
2023-07-26T09:19:30.120Z,5.50
2023-07-26T09:21:30.973Z,4.70
2023-07-26T09:23:32.356Z,4.10
2023-07-26T09:25:32.681Z,4.50
2023-07-26T09:27:33.002Z,4.10
2023-07-26T09:29:33.310Z,4.10
2023-07-26T09:31:33.905Z,3.80
2023-07-26T09:33:34.543Z,3.50
2023-07-26T09:35:34.834Z,3.30
2023-07-26T09:37:35.150Z,3.40
2023-07-26T09:39:35.417Z,3.40
2023-07-26T09:41:35.739Z,2.90
2023-07-26T09:43:36.058Z,2.90
2023-07-26T09:45:38.392Z,2.40
2023-07-26T09:47:40.978Z,2.70
2023-07-26T09:52:13.999Z,2.50
2023-07-26T09:53:49.988Z,2.80
2023-07-26T09:57:54.160Z,2.30
2023-07-26T09:59:54.605Z,2.30
2023-07-26T10:01:54.864Z,2.60
2023-07-26T10:03:55.227Z,2.50
2023-07-26T10:05:55.506Z,2.20
2023-07-26T10:07:55.832Z,2.50
2023-07-26T10:09:56.187Z,2.40
2023-07-26T10:11:56.453Z,2.10
2023-07-26T10:13:56.754Z,2.20
2023-07-26T10:15:57.062Z,2.10
2023-07-26T10:17:57.444Z,2.10
2023-07-26T10:19:57.727Z,2.00
2023-07-26T10:21:58.041Z,2.10
2023-07-26T10:23:58.551Z,2.20
2023-07-26T10:25:58.892Z,2.20
2023-07-26T10:27:59.150Z,2.20
2023-07-26T10:30:00.222Z,2.10
2023-07-26T10:32:00.544Z,2.20
2023-07-26T10:34:01.012Z,2.10
2023-07-26T10:36:01.306Z,2.30
2023-07-26T10:38:01.577Z,2.20
2023-07-26T10:40:02.049Z,2.20
2023-07-26T10:42:02.323Z,2.10
2023-07-26T10:44:02.726Z,2.30
2023-07-26T10:46:03.019Z,2.10
2023-07-26T10:48:03.391Z,2.20
2023-07-26T10:50:03.790Z,2.10
2023-07-26T10:52:04.199Z,2.00
2023-07-26T10:54:04.503Z,2.10
2023-07-26T10:56:04.810Z,2.20
2023-07-26T10:58:05.092Z,2.40
2023-07-26T11:00:05.460Z,2.00
2023-07-26T11:02:05.903Z,2.10
2023-07-26T11:04:06.202Z,2.10
2023-07-26T11:06:06.907Z,2.40
2023-07-26T11:08:07.179Z,2.00
2023-07-26T11:10:07.449Z,2.10
2023-07-26T11:12:07.952Z,2.10
2023-07-26T11:14:08.329Z,2.20
2023-07-26T11:16:13.897Z,2.30
2023-07-26T11:18:13.804Z,2.20
2023-07-26T11:20:14.152Z,2.20
2023-07-26T11:22:14.435Z,2.30
2023-07-26T11:24:15.405Z,2.50
2023-07-26T11:26:15.630Z,2.30
2023-07-26T11:28:15.901Z,2.20
2023-07-26T11:30:16.212Z,2.60
2023-07-26T11:32:16.523Z,2.50
2023-07-26T11:34:16.825Z,2.60
2023-07-26T11:36:17.090Z,2.40
2023-07-26T11:38:17.420Z,2.20
2023-07-26T11:40:17.695Z,2.50
2023-07-26T11:42:18.031Z,2.30
2023-07-26T11:44:18.797Z,2.30
2023-07-26T11:46:19.225Z,2.30
2023-07-26T11:48:19.573Z,2.30
2023-07-26T11:50:19.908Z,2.80
2023-07-26T11:52:20.227Z,2.40
2023-07-26T11:54:20.598Z,2.60
2023-07-26T11:56:21.797Z,2.40
2023-07-26T11:58:22.062Z,2.00
2023-07-26T12:00:22.387Z,2.20
2023-07-26T12:02:23.298Z,2.20
2023-07-26T12:04:23.766Z,2.40
2023-07-26T12:06:24.114Z,2.40
2023-07-26T12:08:24.390Z,2.20
2023-07-26T12:10:25.374Z,2.20
2023-07-26T12:12:25.724Z,2.00
2023-07-26T12:14:26.054Z,2.30
2023-07-26T12:16:26.328Z,2.30
2023-07-26T12:18:26.635Z,2.20
2023-07-26T12:20:34.239Z,2.30
2023-07-26T12:22:32.054Z,1.90
2023-07-26T12:24:32.467Z,1.70
2023-07-26T12:26:33.581Z,1.80
2023-07-26T12:28:34.288Z,1.90
2023-07-26T12:30:34.741Z,2.50
2023-07-26T12:32:35.220Z,2.80
2023-07-26T12:34:35.537Z,2.90
2023-07-26T12:36:35.971Z,2.80
2023-07-26T12:38:36.387Z,3.10
2023-07-26T12:40:36.773Z,3.00
2023-07-26T12:42:37.066Z,2.80
2023-07-26T12:44:37.426Z,2.80
2023-07-26T12:46:51.558Z,2.60
2023-07-26T12:48:42.834Z,2.80
2023-07-26T12:50:43.223Z,2.60
2023-07-26T12:52:43.589Z,2.60
2023-07-26T12:54:43.841Z,2.30
2023-07-26T12:56:44.204Z,2.40
2023-07-26T12:59:00.718Z,2.60
2023-07-26T13:00:49.675Z,2.60
2023-07-26T13:02:50.162Z,2.50
2023-07-26T13:04:50.487Z,2.20
2023-07-26T13:06:50.774Z,2.50
2023-07-26T13:08:51.041Z,2.30
2023-07-26T13:10:51.343Z,3.10
2023-07-26T13:12:51.633Z,3.60
2023-07-26T13:14:52.114Z,3.90
2023-07-26T13:16:52.345Z,5.90
2023-07-26T13:18:52.671Z,7.20
2023-07-26T13:20:53.024Z,9.30
2023-07-26T13:22:53.434Z,8.90
2023-07-26T13:25:35.281Z,10.50
2023-07-26T13:27:35.580Z,10.60
2023-07-26T13:29:35.871Z,10.20
2023-07-26T13:31:36.199Z,11.00
2023-07-26T13:33:40.889Z,6.80
2023-07-26T13:35:41.677Z,12.80
2023-07-26T13:37:41.942Z,13.80
2023-07-26T13:39:42.258Z,12.60
2023-07-26T13:41:42.526Z,15.20
2023-07-26T13:43:42.843Z,14.10
2023-07-26T13:45:44.245Z,12.20
2023-07-26T13:47:46.642Z,11.80
2023-07-26T13:49:46.891Z,9.20
2023-07-26T13:51:47.272Z,8.80
2023-07-26T13:53:47.646Z,12.50
2023-07-26T13:55:47.988Z,10.80
2023-07-26T13:57:48.338Z,10.60
2023-07-26T13:59:48.702Z,12.20
2023-07-26T14:01:49.006Z,16.50
2023-07-26T14:03:49.312Z,16.20
2023-07-26T14:05:49.638Z,15.10
2023-07-26T14:07:50.048Z,10.70
2023-07-26T14:09:50.308Z,13.80
2023-07-26T14:11:50.629Z,9.50
2023-07-26T14:13:50.895Z,8.60
2023-07-26T14:15:51.252Z,8.90
2023-07-26T14:17:56.422Z,8.90
2023-07-26T14:19:56.745Z,9.70
2023-07-26T14:21:57.019Z,10.00
2023-07-26T14:23:57.299Z,11.10
2023-07-26T14:25:57.620Z,12.40
2023-07-26T14:27:57.901Z,7.50
2023-07-26T14:29:58.218Z,5.70
2023-07-26T14:31:58.636Z,5.00
2023-07-26T14:33:58.981Z,5.00
2023-07-26T14:35:59.264Z,5.20
2023-07-26T14:37:59.572Z,5.60
2023-07-26T14:39:59.866Z,4.70
2023-07-26T14:42:00.155Z,4.90
2023-07-26T14:44:00.477Z,4.80
2023-07-26T14:46:00.826Z,3.90
2023-07-26T14:48:01.115Z,4.30
2023-07-26T14:50:04.533Z,4.10
2023-07-26T14:52:05.488Z,5.50
2023-07-26T14:54:05.778Z,3.90
2023-07-26T14:56:06.133Z,4.90
2023-07-26T14:58:06.397Z,4.70
2023-07-26T15:00:06.716Z,4.60
2023-07-26T15:02:07.021Z,4.10
2023-07-26T15:04:07.431Z,4.50
2023-07-26T15:06:07.741Z,4.20
2023-07-26T15:08:08.070Z,4.00
2023-07-26T15:10:08.421Z,4.70
2023-07-26T15:12:08.693Z,4.40
2023-07-26T15:14:09.010Z,4.80
2023-07-26T15:16:09.300Z,4.60
2023-07-26T15:18:09.656Z,4.40
2023-07-26T15:20:09.981Z,4.80
2023-07-26T15:22:10.339Z,6.10
2023-07-26T15:24:10.656Z,7.40
2023-07-26T15:26:10.951Z,6.60
2023-07-26T15:28:11.254Z,8.10
2023-07-26T15:30:11.643Z,9.20
2023-07-26T15:32:15.450Z,9.80
2023-07-26T15:34:15.840Z,9.20
2023-07-26T15:36:16.137Z,9.50
2023-07-26T15:38:16.412Z,6.50
2023-07-26T15:48:31.604Z,8.00
2023-07-26T15:50:31.891Z,7.90
2023-07-26T15:52:32.173Z,8.40
2023-07-26T15:54:32.483Z,10.70
2023-07-26T15:56:32.816Z,8.00
2023-07-26T15:58:33.801Z,8.10
2023-07-26T16:00:34.114Z,8.20
2023-07-26T16:03:02.937Z,8.50
2023-07-26T16:05:02.937Z,8.80
2023-07-26T16:10:51.235Z,8.00
2023-07-26T16:12:51.551Z,7.50
2023-07-26T16:15:35.632Z,5.20
2023-07-26T16:23:08.693Z,5.40
2023-07-26T16:25:08.963Z,5.60
2023-07-26T16:27:09.242Z,5.90
2023-07-26T16:29:09.629Z,5.40
2023-07-26T16:31:09.863Z,5.20
2023-07-26T16:33:10.192Z,6.20
2023-07-26T16:35:10.464Z,6.00
2023-07-26T16:37:11.611Z,6.60
2023-07-26T16:39:13.519Z,6.10
2023-07-26T16:41:13.833Z,5.30
2023-07-26T16:43:14.111Z,6.80
2023-07-26T16:45:14.429Z,5.40
2023-07-26T16:47:14.795Z,6.80
2023-07-26T16:49:15.171Z,6.40
2023-07-26T16:51:15.491Z,5.10
2023-07-26T16:53:15.824Z,2.90
2023-07-26T16:55:16.107Z,2.50
2023-07-26T16:57:16.379Z,2.60
2023-07-26T16:59:16.689Z,2.20
2023-07-26T17:01:17.029Z,2.00
2023-07-26T17:03:17.394Z,3.00
2023-07-26T17:05:17.814Z,2.90
2023-07-26T17:07:18.120Z,3.00
2023-07-26T17:09:18.443Z,3.00
2023-07-26T17:11:18.744Z,2.80
2023-07-26T17:13:18.999Z,2.70
2023-07-26T17:15:19.295Z,2.80
2023-07-26T17:17:19.603Z,3.00
2023-07-26T17:19:19.869Z,3.40
2023-07-26T17:21:20.170Z,3.00
2023-07-26T17:23:20.477Z,3.20
2023-07-26T17:25:20.832Z,2.80
2023-07-26T17:27:21.095Z,3.40
2023-07-26T17:29:21.407Z,2.70
2023-07-26T17:31:21.743Z,3.00
2023-07-26T17:33:22.096Z,3.00
2023-07-26T17:35:22.357Z,3.10
2023-07-26T17:37:22.678Z,2.30
2023-07-26T17:39:22.980Z,2.40
2023-07-26T17:41:23.286Z,2.40
2023-07-26T17:43:23.598Z,2.30
2023-07-26T17:45:23.950Z,2.40
2023-07-26T17:47:24.299Z,2.40
2023-07-26T17:49:24.599Z,2.40
2023-07-26T17:51:24.893Z,3.00
2023-07-26T17:53:25.177Z,3.20
2023-07-26T17:55:25.490Z,3.50
2023-07-26T17:57:25.802Z,4.00
2023-07-26T17:59:26.063Z,4.40
2023-07-26T18:01:26.394Z,4.40
2023-07-26T18:03:26.805Z,5.00
2023-07-26T18:05:27.121Z,5.10
2023-07-26T18:07:27.398Z,5.20
2023-07-26T18:09:34.732Z,5.50
2023-07-26T18:11:35.021Z,5.70
2023-07-26T18:13:35.281Z,4.70
2023-07-26T18:15:35.651Z,5.40
2023-07-26T18:17:35.952Z,5.00
2023-07-26T18:19:36.295Z,4.90
2023-07-26T18:21:36.656Z,4.30
2023-07-26T18:23:36.950Z,4.80
2023-07-26T18:25:37.232Z,4.60
2023-07-26T18:27:37.616Z,4.40
2023-07-26T18:29:37.855Z,4.20
2023-07-26T18:31:40.486Z,4.50
2023-07-26T18:33:42.323Z,4.50
2023-07-26T18:35:42.621Z,4.30
2023-07-26T18:37:43.115Z,3.90
2023-07-26T18:39:43.553Z,3.90
2023-07-26T18:41:44.130Z,4.20
2023-07-26T18:43:44.559Z,3.80
2023-07-26T18:46:30.855Z,4.50
2023-07-26T18:48:31.562Z,4.50
2023-07-26T18:50:31.934Z,4.30
2023-07-26T18:52:32.254Z,4.80
2023-07-26T18:54:32.583Z,4.50
2023-07-26T18:56:33.083Z,4.80
2023-07-26T18:58:33.852Z,4.90
2023-07-26T19:00:34.338Z,5.30
2023-07-26T19:02:34.885Z,5.40
2023-07-26T19:04:35.224Z,5.20
2023-07-26T19:06:35.737Z,5.20
2023-07-26T19:08:36.114Z,5.20
2023-07-26T19:10:36.510Z,4.80
2023-07-26T19:12:36.779Z,4.00
2023-07-26T19:14:37.181Z,3.40
2023-07-26T19:16:37.752Z,4.10
2023-07-26T19:18:38.186Z,3.90
2023-07-26T19:20:38.571Z,3.60
2023-07-26T19:22:40.980Z,3.90
2023-07-26T19:24:41.436Z,4.00
2023-07-26T19:26:41.744Z,4.10
2023-07-26T19:28:42.131Z,4.60
2023-07-26T19:30:42.437Z,5.10
2023-07-26T19:32:42.764Z,4.90
2023-07-26T19:34:43.018Z,5.50
2023-07-26T19:36:43.343Z,5.30
2023-07-26T19:38:43.676Z,5.90
2023-07-26T19:40:43.937Z,6.40
2023-07-26T19:42:44.257Z,6.80
2023-07-26T19:44:44.570Z,6.10
2023-07-26T19:46:44.867Z,6.50
2023-07-26T19:48:45.280Z,6.60
2023-07-26T19:50:45.562Z,6.80
2023-07-26T19:52:45.823Z,7.00
2023-07-26T19:54:46.162Z,6.40
2023-07-26T19:56:46.415Z,7.00
2023-07-26T19:58:46.788Z,7.40
2023-07-26T20:00:47.046Z,6.60
2023-07-26T20:02:47.421Z,6.50
2023-07-26T20:04:47.782Z,6.80
2023-07-26T20:06:48.068Z,6.50
2023-07-26T20:08:48.421Z,6.50
2023-07-26T20:10:48.734Z,6.20
2023-07-26T20:12:49.134Z,6.30
2023-07-26T20:14:49.469Z,6.50
2023-07-26T20:16:50.046Z,6.10
2023-07-26T20:18:50.517Z,6.60
2023-07-26T20:20:50.821Z,6.30
2023-07-26T20:23:35.923Z,6.40
2023-07-26T20:25:36.404Z,6.10
2023-07-26T20:27:36.782Z,6.00
2023-07-26T20:29:42.127Z,6.20
2023-07-26T20:31:42.618Z,6.40
2023-07-26T20:33:42.994Z,5.40
2023-07-26T20:35:43.330Z,5.80
2023-07-26T20:37:43.596Z,5.20
2023-07-26T20:39:43.928Z,5.30
2023-07-26T20:41:44.447Z,5.10
2023-07-26T20:43:44.717Z,5.50
2023-07-26T20:45:45.039Z,5.10
2023-07-26T20:47:45.406Z,5.40
2023-07-26T20:49:45.660Z,5.20
2023-07-26T20:51:45.965Z,6.20
2023-07-26T20:53:46.243Z,5.10
2023-07-26T20:55:46.516Z,5.70
2023-07-26T20:57:46.860Z,5.80
2023-07-26T20:59:47.173Z,5.30
2023-07-26T21:01:50.104Z,5.00
2023-07-26T21:03:52.188Z,4.60
2023-07-26T21:06:35.509Z,4.90
2023-07-26T21:08:36.014Z,5.60
2023-07-26T21:10:36.319Z,4.90
2023-07-26T21:12:36.609Z,5.70
2023-07-26T21:14:36.921Z,5.10
2023-07-26T21:16:37.626Z,5.10
2023-07-26T21:18:38.124Z,5.10
2023-07-26T21:20:38.405Z,4.80
2023-07-26T21:22:38.857Z,5.70
2023-07-26T21:24:39.179Z,5.70
2023-07-26T21:26:39.490Z,5.70
2023-07-26T21:28:39.786Z,5.70
2023-07-26T21:30:40.057Z,5.30
2023-07-26T21:32:40.403Z,5.70
2023-07-26T21:34:40.676Z,5.90
2023-07-26T21:36:41.001Z,5.90
2023-07-26T21:38:41.255Z,6.30
2023-07-26T21:40:41.561Z,5.30
2023-07-26T21:42:41.851Z,5.60
2023-07-26T21:44:42.210Z,5.40
2023-07-26T21:46:42.535Z,5.60
2023-07-26T21:48:42.809Z,5.80
2023-07-26T21:50:43.131Z,5.90
2023-07-26T21:52:43.538Z,6.00
2023-07-26T21:54:43.796Z,5.40
2023-07-26T21:56:44.104Z,6.00
2023-07-26T21:58:44.459Z,5.70
2023-07-26T22:00:44.712Z,5.70
2023-07-26T22:02:45.060Z,5.00
2023-07-26T22:04:45.431Z,5.00
2023-07-26T22:06:45.717Z,5.70
2023-07-26T22:08:46.013Z,5.50
2023-07-26T22:10:46.313Z,5.10
2023-07-26T22:12:46.599Z,5.20
2023-07-26T22:14:46.890Z,5.20
2023-07-26T22:16:47.230Z,5.20
2023-07-26T22:18:47.550Z,5.40
2023-07-26T22:21:07.707Z,5.80
2023-07-26T22:22:53.064Z,5.10
2023-07-26T22:24:53.430Z,5.70
2023-07-26T22:26:53.762Z,6.50
2023-07-26T22:28:54.090Z,5.50
2023-07-26T22:30:54.385Z,4.90
2023-07-26T22:32:54.737Z,5.40
2023-07-26T22:34:55.075Z,5.50
2023-07-26T22:36:55.369Z,5.10
2023-07-26T22:38:55.668Z,5.90
2023-07-26T22:40:55.960Z,5.30
2023-07-26T22:42:56.307Z,5.50
2023-07-26T22:44:56.606Z,5.40
2023-07-26T22:46:56.914Z,5.40
2023-07-26T22:48:57.184Z,5.20
2023-07-26T22:50:57.532Z,5.60
2023-07-26T22:52:57.768Z,5.50
2023-07-26T22:54:58.056Z,5.50
2023-07-26T22:56:58.413Z,5.20
2023-07-26T22:58:58.672Z,5.50
2023-07-26T23:00:59.032Z,5.30
2023-07-26T23:02:59.446Z,5.30
2023-07-26T23:04:59.796Z,5.20
2023-07-26T23:07:00.085Z,5.60
2023-07-26T23:09:00.351Z,5.10
2023-07-26T23:11:00.651Z,5.20
2023-07-26T23:13:00.952Z,5.10
2023-07-26T23:15:01.263Z,5.20
2023-07-26T23:17:01.535Z,5.00
2023-07-26T23:19:01.828Z,4.80
2023-07-26T23:21:02.104Z,4.70
2023-07-26T23:23:02.436Z,5.00
2023-07-26T23:25:02.691Z,5.10
2023-07-26T23:27:02.981Z,4.50
2023-07-26T23:29:03.316Z,4.50
2023-07-26T23:31:03.658Z,4.40
2023-07-26T23:33:04.007Z,4.40
2023-07-26T23:35:04.278Z,4.80
2023-07-26T23:37:04.594Z,4.70
2023-07-26T23:39:04.879Z,4.70
2023-07-26T23:41:05.172Z,4.90
2023-07-26T23:43:05.480Z,4.40
2023-07-26T23:45:05.775Z,4.50
2023-07-26T23:47:06.056Z,4.50
2023-07-26T23:49:06.329Z,4.60
2023-07-26T23:51:06.640Z,4.50
2023-07-26T23:53:06.932Z,4.50
2023-07-26T23:55:07.249Z,4.00
2023-07-26T23:57:07.507Z,4.20
2023-07-26T23:59:07.805Z,4.30
